Time;durP1;ratioP1;P1;durP2;ratioP2;P2;SDS_P1;SDS_P2;PMS_P1;PMS_P2;Temp;Humidity;BMP_temperature;BMP_pressure;BME280_temperature;BME280_humidity;BME280_pressure;Samples;Min_cycle;Max_cycle;Signal;HPM_P1;HPM_P2
2022/11/08 00:02:38;;;;;;;0.80;0.20;;;2.40;99.90;;;;;;21076500;28;20459;-56
2022/11/08 00:23:02;;;;;;;0.93;0.30;;;2.40;99.90;;;;;;21088909;28;20506;-54
2022/11/08 00:33:06;;;;;;;1.33;0.25;;;2.40;99.90;;;;;;21094854;28;20375;-56
2022/11/08 00:43:08;;;;;;;0.57;0.20;;;2.30;99.90;;;;;;21123513;28;20369;-64
2022/11/08 00:53:11;;;;;;;0.40;0.20;;;2.20;99.90;;;;;;21122815;28;20104;-55
2022/11/08 01:03:19;;;;;;;0.38;0.20;;;2.20;99.90;;;;;;21054824;28;20048;-55
2022/11/08 01:13:21;;;;;;;0.13;0.08;;;2.20;99.90;;;;;;21075266;28;20040;-65
2022/11/08 01:23:24;;;;;;;0.57;0.20;;;2.20;99.90;;;;;;21075846;28;20032;-64
2022/11/08 01:33:27;;;;;;;1.90;0.20;;;2.30;99.90;;;;;;21086210;28;20101;-54
2022/11/08 01:43:29;;;;;;;0.35;0.13;;;2.30;99.90;;;;;;21106714;28;20069;-65
2022/11/08 01:53:32;;;;;;;0.77;0.10;;;2.40;99.90;;;;;;21081129;28;20497;-65
2022/11/08 02:03:35;;;;;;;0.80;0.15;;;2.50;99.90;;;;;;21118753;28;20035;-55
2022/11/08 02:13:39;;;;;;;0.47;0.10;;;2.60;99.90;;;;;;21080302;28;20032;-55
2022/11/08 02:23:52;;;;;;;1.40;0.17;;;2.50;99.90;;;;;;21139335;28;20040;-56
2022/11/08 02:33:56;;;;;;;0.47;0.10;;;2.50;99.90;;;;;;21073987;28;20044;-65
2022/11/08 02:43:58;;;;;;;2.88;0.20;;;2.60;99.90;;;;;;21063206;28;20085;-54
2022/11/08 02:54:01;;;;;;;0.08;0.00;;;2.40;99.90;;;;;;21069107;28;20048;-64
2022/11/08 03:04:03;;;;;;;0.30;0.10;;;2.10;99.90;;;;;;21106596;28;20040;-55
2022/11/08 03:14:06;;;;;;;0.20;0.10;;;2.10;99.90;;;;;;21084937;28;20036;-54
2022/11/08 03:24:10;;;;;;;0.85;0.28;;;2.00;99.90;;;;;;21060070;28;20144;-56
2022/11/08 03:34:13;;;;;;;0.43;0.20;;;2.20;99.90;;;;;;21145864;28;20039;-55
2022/11/08 03:44:16;;;;;;;0.57;0.10;;;2.00;99.90;;;;;;21086567;28;20036;-54
2022/11/08 03:54:19;;;;;;;0.13;0.10;;;1.90;99.90;;;;;;21114522;28;20047;-65
2022/11/08 04:04:21;;;;;;;0.95;0.20;;;1.90;99.90;;;;;;21106055;28;20545;-56
2022/11/08 04:24:45;;;;;;;0.50;0.20;;;2.30;99.90;;;;;;21096511;28;20104;-56
2022/11/08 04:34:48;;;;;;;1.52;0.20;;;2.10;99.90;;;;;;21082403;28;20032;-64
2022/11/08 04:44:51;;;;;;;0.80;0.22;;;2.00;99.90;;;;;;21093152;28;20036;-56
2022/11/08 04:54:53;;;;;;;0.98;0.30;;;2.30;99.90;;;;;;21053206;28;20052;-57
2022/11/08 05:04:56;;;;;;;0.52;0.20;;;2.50;99.90;;;;;;21003680;28;20044;-66
2022/11/08 05:14:59;;;;;;;0.40;0.20;;;3.30;99.90;;;;;;21121262;28;20557;-57
2022/11/08 05:25:01;;;;;;;0.93;0.32;;;4.00;99.90;;;;;;21073720;28;20444;-57
2022/11/08 05:35:06;;;;;;;0.68;0.15;;;4.00;99.90;;;;;;21032399;28;20036;-56
2022/11/08 05:45:09;;;;;;;0.77;0.20;;;4.80;99.90;;;;;;21023527;28;20028;-56
2022/11/08 05:55:11;;;;;;;1.17;0.20;;;5.00;99.90;;;;;;20976749;28;20118;-57
2022/11/08 06:05:14;;;;;;;1.02;0.45;;;4.90;99.90;;;;;;21051015;28;20044;-55
2022/11/08 06:15:17;;;;;;;0.63;0.20;;;4.40;99.90;;;;;;21116126;28;20036;-56
2022/11/08 06:25:20;;;;;;;0.20;0.10;;;4.30;99.90;;;;;;21129834;28;20484;-55
2022/11/08 06:35:22;;;;;;;0.30;0.17;;;4.60;99.90;;;;;;21150785;28;20080;-56
2022/11/08 06:45:27;;;;;;;0.57;0.20;;;4.70;99.90;;;;;;21113908;28;20541;-66
2022/11/08 06:55:30;;;;;;;0.77;0.20;;;5.00;99.90;;;;;;21132062;28;20150;-55
2022/11/08 07:05:34;;;;;;;0.55;0.20;;;5.20;99.90;;;;;;21120314;28;20040;-65
2022/11/08 07:15:38;;;;;;;0.55;0.20;;;5.30;99.90;;;;;;21098923;28;20542;-58
2022/11/08 07:25:40;;;;;;;1.15;0.47;;;5.20;99.90;;;;;;21126296;28;20039;-58
2022/11/08 07:35:46;;;;;;;0.82;0.32;;;5.80;99.90;;;;;;21070077;28;20028;-58
2022/11/08 07:45:58;;;;;;;1.15;0.40;;;6.80;99.90;;;;;;21087873;28;20032;-58
2022/11/08 07:56:01;;;;;;;3.90;0.30;;;7.60;99.90;;;;;;21077138;28;20051;-59
2022/11/08 08:06:04;;;;;;;4.65;0.30;;;8.10;99.90;;;;;;21122505;28;20443;-60
2022/11/08 08:16:06;;;;;;;1.48;0.40;;;8.50;99.90;;;;;;21125997;28;20032;-63
2022/11/08 08:26:09;;;;;;;1.02;0.43;;;9.20;99.90;;;;;;21098149;28;20028;-65
2022/11/08 08:36:11;;;;;;;0.93;0.50;;;9.80;97.80;;;;;;21056093;28;20032;-65
2022/11/08 08:46:14;;;;;;;1.52;0.60;;;9.40;99.90;;;;;;21098404;28;20439;-59
2022/11/08 08:56:17;;;;;;;0.95;0.55;;;9.00;99.90;;;;;;21064778;28;20101;-58
2022/11/08 09:06:20;;;;;;;3.30;0.47;;;8.40;99.90;;;;;;21089582;28;20044;-59
2022/11/08 09:16:22;;;;;;;0.95;0.50;;;8.30;99.90;;;;;;21121653;28;20086;-60
2022/11/08 09:26:25;;;;;;;1.40;0.30;;;9.90;99.90;;;;;;21059079;28;20081;-59
2022/11/08 09:36:27;;;;;;;1.13;0.50;;;11.60;99.90;;;;;;21036246;28;20077;-59
2022/11/08 09:46:55;;;;;;;1.00;0.50;;;12.90;98.80;;;;;;21101515;28;20061;-63
2022/11/08 09:56:57;;;;;;;1.73;0.40;;;13.00;97.00;;;;;;21104295;28;20117;-65
2022/11/08 10:07:32;;;;;;;0.80;0.50;;;12.50;97.40;;;;;;21094909;28;20569;-59
2022/11/08 10:17:54;;;;;;;2.17;0.60;;;12.00;97.90;;;;;;21052914;28;20040;-67
2022/11/08 10:28:01;;;;;;;1.23;0.50;;;11.40;98.90;;;;;;21072345;28;20092;-59
2022/11/08 10:38:23;;;;;;;1.05;0.47;;;11.20;99.20;;;;;;21100748;28;20035;-59
2022/11/08 10:48:27;;;;;;;1.27;0.70;;;11.10;99.90;;;;;;21069664;28;20098;-64
2022/11/08 10:58:32;;;;;;;1.77;0.70;;;10.90;99.90;;;;;;21095670;28;20421;-59
2022/11/08 11:08:48;;;;;;;1.63;0.47;;;10.50;99.90;;;;;;21061834;28;20044;-66
2022/11/08 11:18:51;;;;;;;1.00;0.40;;;10.70;99.90;;;;;;21096686;28;20401;-64
2022/11/08 11:29:15;;;;;;;1.58;0.30;;;11.10;99.90;;;;;;21146769;28;20391;-59
2022/11/08 11:39:27;;;;;;;3.95;0.68;;;11.20;99.90;;;;;;21112077;28;20039;-66
2022/11/08 11:49:38;;;;;;;1.80;0.40;;;11.10;99.90;;;;;;21087739;28;20044;-62
2022/11/08 11:59:45;;;;;;;3.05;0.70;;;11.20;99.90;;;;;;21110941;28;20096;-59
2022/11/08 12:10:27;;;;;;;1.30;0.63;;;12.20;99.90;;;;;;21071716;28;20088;-60
2022/11/08 12:20:33;;;;;;;2.63;0.90;;;12.80;99.90;;;;;;21095261;28;20554;-60
2022/11/08 12:30:54;;;;;;;3.03;1.10;;;13.10;99.90;;;;;;21092327;28;20032;-59
2022/11/08 12:41:33;;;;;;;2.15;0.80;;;13.50;99.90;;;;;;21071622;28;20028;-59
2022/11/08 12:51:57;;;;;;;1.70;1.10;;;13.60;99.90;;;;;;21086586;28;20052;-60
2022/11/08 13:02:02;;;;;;;1.98;0.98;;;13.60;99.90;;;;;;21071973;28;20097;-60
2022/11/08 13:12:11;;;;;;;2.80;1.35;;;12.90;99.90;;;;;;21105161;28;20036;-66
2022/11/08 13:22:29;;;;;;;3.30;1.40;;;12.20;99.90;;;;;;21088553;28;20031;-65
2022/11/08 13:33:09;;;;;;;2.92;1.80;;;11.50;99.90;;;;;;21137010;28;20036;-65
2022/11/08 13:43:22;;;;;;;3.42;1.70;;;10.70;99.90;;;;;;21083017;28;20073;-59
2022/11/08 13:53:43;;;;;;;2.92;1.88;;;10.20;99.90;;;;;;21122964;28;20036;-59
2022/11/08 14:03:46;;;;;;;2.38;1.58;;;9.90;99.90;;;;;;21076570;28;20105;-59
2022/11/08 14:14:15;;;;;;;2.20;1.50;;;9.60;99.90;;;;;;21122780;28;20040;-60
2022/11/08 14:24:22;;;;;;;4.32;1.77;;;9.40;99.90;;;;;;21087118;28;20054;-64
2022/11/08 14:34:36;;;;;;;2.63;1.60;;;9.30;99.90;;;;;;21130220;28;20085;-58
2022/11/08 14:44:43;;;;;;;3.90;1.42;;;9.00;99.90;;;;;;21117343;28;20088;-64
2022/11/08 14:54:48;;;;;;;3.30;0.80;;;8.70;99.90;;;;;;21065292;28;20505;-64
2022/11/08 15:04:52;;;;;;;2.20;1.30;;;8.80;99.90;;;;;;21110542;28;20040;-59
2022/11/08 15:14:59;;;;;;;2.03;1.35;;;8.60;99.90;;;;;;21081053;28;20028;-59
2022/11/08 15:25:13;;;;;;;0.80;0.40;;;8.10;99.90;;;;;;21098096;28;20545;-65
2022/11/08 15:35:36;;;;;;;1.63;0.70;;;8.10;99.90;;;;;;20957497;28;20103;-58
2022/11/08 15:45:52;;;;;;;1.23;0.45;;;8.50;99.90;;;;;;20926768;28;20044;-65
2022/11/08 15:56:04;;;;;;;1.45;0.60;;;8.50;99.90;;;;;;20914229;28;20044;-66
2022/11/08 16:06:11;;;;;;;1.73;0.60;;;8.40;99.90;;;;;;20978007;28;20404;-59
2022/11/08 16:16:15;;;;;;;1.05;0.55;;;8.40;99.90;;;;;;21105721;28;20043;-59
2022/11/08 16:26:19;;;;;;;2.53;0.70;;;8.40;99.90;;;;;;21096391;28;20093;-55
2022/11/08 16:36:28;;;;;;;2.28;0.73;;;8.40;99.90;;;;;;21090936;28;20087;-58
2022/11/08 16:46:31;;;;;;;1.38;0.50;;;8.50;99.90;;;;;;21063645;28;20069;-57
2022/11/08 16:56:33;;;;;;;0.98;0.40;;;8.10;99.90;;;;;;21077351;28;20051;-58
2022/11/08 17:06:37;;;;;;;1.23;0.40;;;8.10;99.90;;;;;;21058219;28;20117;-59
2022/11/08 17:16:39;;;;;;;2.88;0.60;;;8.40;99.90;;;;;;21119432;28;20036;-58
2022/11/08 17:26:44;;;;;;;2.45;0.80;;;8.50;99.90;;;;;;21045358;28;20071;-56
2022/11/08 17:36:47;;;;;;;0.95;0.35;;;8.50;99.90;;;;;;21002979;28;20024;-56
2022/11/08 17:46:49;;;;;;;0.88;0.47;;;8.30;99.90;;;;;;21051990;28;20039;-66
2022/11/08 17:56:52;;;;;;;2.72;0.77;;;8.60;99.90;;;;;;21060542;28;20582;-64
2022/11/08 18:06:58;;;;;;;3.75;0.63;;;8.70;99.90;;;;;;20995002;28;20036;-52
2022/11/08 18:17:03;;;;;;;0.77;0.40;;;8.30;99.90;;;;;;21048527;28;20071;-52
2022/11/08 18:27:07;;;;;;;3.00;1.00;;;8.20;99.90;;;;;;21036644;28;20040;-59
2022/11/08 18:37:09;;;;;;;1.85;1.20;;;8.40;99.90;;;;;;21034840;28;20027;-52
2022/11/08 18:47:12;;;;;;;2.15;1.27;;;8.30;99.90;;;;;;21033968;28;20094;-67
2022/11/08 18:57:14;;;;;;;3.58;1.83;;;7.80;99.90;;;;;;21068254;28;20049;-58
2022/11/08 19:07:18;;;;;;;3.65;1.77;;;7.80;99.90;;;;;;21013813;28;20423;-57
2022/11/08 19:17:21;;;;;;;4.13;1.73;;;7.70;99.90;;;;;;21040734;28;20428;-67
2022/11/08 19:27:23;;;;;;;3.65;1.17;;;7.90;99.90;;;;;;21067288;28;20590;-56
2022/11/08 19:37:26;;;;;;;5.32;1.40;;;8.10;99.90;;;;;;21069323;28;20032;-56
2022/11/08 19:47:29;;;;;;;1.88;0.90;;;8.20;99.90;;;;;;21059158;28;20068;-66
2022/11/08 19:57:33;;;;;;;1.20;0.57;;;8.30;99.90;;;;;;21065428;28;20055;-54
2022/11/08 20:07:38;;;;;;;1.95;0.60;;;8.80;99.90;;;;;;21049674;28;20036;-68
2022/11/08 20:17:44;;;;;;;5.85;2.97;;;9.20;99.90;;;;;;21075199;28;20040;-66
2022/11/08 20:27:46;;;;;;;3.55;1.95;;;8.90;99.90;;;;;;21037596;28;20052;-56
2022/11/08 20:37:49;;;;;;;2.40;1.70;;;8.40;99.90;;;;;;21044546;28;20036;-66
2022/11/08 20:47:51;;;;;;;4.05;1.95;;;8.20;99.90;;;;;;21007481;28;20040;-58
2022/11/08 20:57:54;;;;;;;3.78;2.53;;;8.40;99.90;;;;;;21055563;28;20412;-56
2022/11/08 21:07:56;;;;;;;3.25;1.88;;;8.50;99.90;;;;;;21055386;28;20133;-67
2022/11/08 21:18:00;;;;;;;3.90;2.00;;;8.50;99.90;;;;;;20951168;28;20358;-57
2022/11/08 21:28:03;;;;;;;3.33;2.08;;;8.40;99.90;;;;;;20970594;28;20094;-58
2022/11/08 21:38:07;;;;;;;5.60;2.50;;;8.40;99.90;;;;;;20918655;28;20037;-67
2022/11/08 21:48:10;;;;;;;3.95;2.90;;;8.40;99.90;;;;;;20892747;28;20045;-66
2022/11/08 21:58:13;;;;;;;6.63;4.03;;;8.10;99.90;;;;;;21111682;28;20089;-58
2022/11/08 22:08:16;;;;;;;8.15;3.45;;;8.00;99.90;;;;;;21135760;28;20043;-58
2022/11/08 22:18:19;;;;;;;3.22;1.95;;;7.90;99.90;;;;;;21135575;28;20401;-68
2022/11/08 22:28:22;;;;;;;2.88;2.00;;;8.20;99.90;;;;;;21063789;28;20028;-58
2022/11/08 22:38:24;;;;;;;3.80;1.52;;;8.40;99.90;;;;;;21069464;28;20065;-67
2022/11/08 22:48:27;;;;;;;7.75;3.70;;;8.40;99.90;;;;;;21134402;28;20447;-57
2022/11/08 22:58:31;;;;;;;5.13;3.63;;;7.80;99.90;;;;;;21139125;28;20374;-65
2022/11/08 23:08:33;;;;;;;10.70;6.13;;;7.20;99.90;;;;;;21150346;28;20031;-65
2022/11/08 23:18:36;;;;;;;10.27;7.18;;;7.00;99.90;;;;;;21148677;28;20152;-65
2022/11/08 23:38:59;;;;;;;;;;;6.50;99.90;;;;;;21147062;28;20039;-56
2022/11/08 23:49:03;;;;;;;7.40;4.78;;;6.30;99.90;;;;;;21146168;28;19919;-65
2022/11/08 23:59:06;;;;;;;6.03;4.10;;;6.40;99.90;;;;;;21145006;28;20039;-66
